sensor_id;sensor_type;location;lat;lon;timestamp;P1;durP1;ratioP1;P2;durP2;ratioP2
20699;SDS011;10511;51.232;9.420;2022-08-19T00:00:47;0.50;;;0.50;;
20699;SDS011;10511;51.232;9.420;2022-08-19T00:03:15;0.60;;;0.60;;
20699;SDS011;10511;51.232;9.420;2022-08-19T00:05:42;0.60;;;0.60;;
20699;SDS011;10511;51.232;9.420;2022-08-19T00:08:09;0.60;;;0.60;;
20699;SDS011;10511;51.232;9.420;2022-08-19T00:10:36;0.60;;;0.60;;
20699;SDS011;10511;51.232;9.420;2022-08-19T00:13:02;0.50;;;0.50;;
20699;SDS011;10511;51.232;9.420;2022-08-19T00:15:30;0.70;;;0.70;;
20699;SDS011;10511;51.232;9.420;2022-08-19T00:17:58;0.60;;;0.60;;
20699;SDS011;10511;51.232;9.420;2022-08-19T00:20:25;0.70;;;0.70;;
20699;SDS011;10511;51.232;9.420;2022-08-19T00:22:52;0.70;;;0.70;;
20699;SDS011;10511;51.232;9.420;2022-08-19T00:25:19;0.57;;;0.57;;
20699;SDS011;10511;51.232;9.420;2022-08-19T00:27:46;0.60;;;0.60;;
20699;SDS011;10511;51.232;9.420;2022-08-19T00:30:13;0.57;;;0.57;;
20699;SDS011;10511;51.232;9.420;2022-08-19T00:32:40;0.70;;;0.70;;
20699;SDS011;10511;51.232;9.420;2022-08-19T00:35:09;0.50;;;0.50;;
20699;SDS011;10511;51.232;9.420;2022-08-19T00:37:36;0.60;;;0.60;;
20699;SDS011;10511;51.232;9.420;2022-08-19T00:40:04;0.60;;;0.60;;
20699;SDS011;10511;51.232;9.420;2022-08-19T00:42:32;0.50;;;0.50;;
20699;SDS011;10511;51.232;9.420;2022-08-19T00:44:59;0.50;;;0.50;;
20699;SDS011;10511;51.232;9.420;2022-08-19T00:47:26;0.50;;;0.50;;
20699;SDS011;10511;51.232;9.420;2022-08-19T00:49:54;0.60;;;0.60;;
20699;SDS011;10511;51.232;9.420;2022-08-19T00:52:25;0.50;;;0.50;;
20699;SDS011;10511;51.232;9.420;2022-08-19T00:54:55;0.50;;;0.50;;
20699;SDS011;10511;51.232;9.420;2022-08-19T00:57:24;0.60;;;0.60;;
20699;SDS011;10511;51.232;9.420;2022-08-19T00:59:54;0.60;;;0.60;;
20699;SDS011;10511;51.232;9.420;2022-08-19T01:02:22;0.60;;;0.60;;
20699;SDS011;10511;51.232;9.420;2022-08-19T01:04:50;0.60;;;0.60;;
20699;SDS011;10511;51.232;9.420;2022-08-19T01:07:17;0.60;;;0.60;;
20699;SDS011;10511;51.232;9.420;2022-08-19T01:09:45;0.70;;;0.70;;
20699;SDS011;10511;51.232;9.420;2022-08-19T01:12:13;0.67;;;0.67;;
20699;SDS011;10511;51.232;9.420;2022-08-19T01:14:40;0.60;;;0.60;;
20699;SDS011;10511;51.232;9.420;2022-08-19T01:17:07;0.60;;;0.60;;
20699;SDS011;10511;51.232;9.420;2022-08-19T01:19:36;0.60;;;0.60;;
20699;SDS011;10511;51.232;9.420;2022-08-19T01:22:08;0.60;;;0.60;;
20699;SDS011;10511;51.232;9.420;2022-08-19T01:24:42;0.70;;;0.70;;
20699;SDS011;10511;51.232;9.420;2022-08-19T01:27:09;0.60;;;0.60;;
20699;SDS011;10511;51.232;9.420;2022-08-19T01:29:37;0.60;;;0.60;;
20699;SDS011;10511;51.232;9.420;2022-08-19T01:32:06;0.70;;;0.70;;
20699;SDS011;10511;51.232;9.420;2022-08-19T01:34:34;0.60;;;0.60;;
20699;SDS011;10511;51.232;9.420;2022-08-19T01:37:06;0.70;;;0.70;;
20699;SDS011;10511;51.232;9.420;2022-08-19T01:39:36;0.70;;;0.70;;
20699;SDS011;10511;51.232;9.420;2022-08-19T01:42:06;0.60;;;0.60;;
20699;SDS011;10511;51.232;9.420;2022-08-19T01:44:34;0.70;;;0.70;;
20699;SDS011;10511;51.232;9.420;2022-08-19T01:47:01;0.60;;;0.60;;
20699;SDS011;10511;51.232;9.420;2022-08-19T01:49:29;0.70;;;0.70;;
20699;SDS011;10511;51.232;9.420;2022-08-19T01:51:56;0.60;;;0.60;;
20699;SDS011;10511;51.232;9.420;2022-08-19T01:54:25;0.70;;;0.70;;
20699;SDS011;10511;51.232;9.420;2022-08-19T01:56:53;0.60;;;0.60;;
20699;SDS011;10511;51.232;9.420;2022-08-19T01:59:24;0.60;;;0.60;;
20699;SDS011;10511;51.232;9.420;2022-08-19T02:01:51;0.70;;;0.70;;
20699;SDS011;10511;51.232;9.420;2022-08-19T02:04:18;0.60;;;0.60;;
20699;SDS011;10511;51.232;9.420;2022-08-19T02:06:45;0.60;;;0.60;;
20699;SDS011;10511;51.232;9.420;2022-08-19T02:09:13;0.60;;;0.60;;
20699;SDS011;10511;51.232;9.420;2022-08-19T02:11:41;0.67;;;0.67;;
20699;SDS011;10511;51.232;9.420;2022-08-19T02:14:08;0.70;;;0.70;;
20699;SDS011;10511;51.232;9.420;2022-08-19T02:16:36;0.60;;;0.60;;
20699;SDS011;10511;51.232;9.420;2022-08-19T02:19:05;0.70;;;0.70;;
20699;SDS011;10511;51.232;9.420;2022-08-19T02:21:32;0.60;;;0.60;;
20699;SDS011;10511;51.232;9.420;2022-08-19T02:23:59;0.60;;;0.60;;
20699;SDS011;10511;51.232;9.420;2022-08-19T02:26:26;0.70;;;0.70;;
20699;SDS011;10511;51.232;9.420;2022-08-19T02:28:54;0.70;;;0.70;;
20699;SDS011;10511;51.232;9.420;2022-08-19T02:31:22;0.70;;;0.70;;
20699;SDS011;10511;51.232;9.420;2022-08-19T02:33:52;0.60;;;0.60;;
20699;SDS011;10511;51.232;9.420;2022-08-19T02:36:20;0.60;;;0.60;;
20699;SDS011;10511;51.232;9.420;2022-08-19T02:38:48;0.70;;;0.70;;
20699;SDS011;10511;51.232;9.420;2022-08-19T02:41:15;0.60;;;0.60;;
20699;SDS011;10511;51.232;9.420;2022-08-19T02:43:43;0.60;;;0.60;;
20699;SDS011;10511;51.232;9.420;2022-08-19T02:46:11;0.60;;;0.60;;
20699;SDS011;10511;51.232;9.420;2022-08-19T02:48:39;0.70;;;0.70;;
20699;SDS011;10511;51.232;9.420;2022-08-19T02:51:07;0.63;;;0.63;;
20699;SDS011;10511;51.232;9.420;2022-08-19T02:53:34;0.60;;;0.60;;
20699;SDS011;10511;51.232;9.420;2022-08-19T02:56:05;0.60;;;0.60;;
20699;SDS011;10511;51.232;9.420;2022-08-19T02:58:32;0.70;;;0.70;;
20699;SDS011;10511;51.232;9.420;2022-08-19T03:00:59;0.70;;;0.70;;
20699;SDS011;10511;51.232;9.420;2022-08-19T03:03:26;0.60;;;0.60;;
20699;SDS011;10511;51.232;9.420;2022-08-19T03:06:04;0.60;;;0.60;;
20699;SDS011;10511;51.232;9.420;2022-08-19T03:08:34;0.67;;;0.67;;
20699;SDS011;10511;51.232;9.420;2022-08-19T03:11:01;0.60;;;0.60;;
20699;SDS011;10511;51.232;9.420;2022-08-19T03:13:28;0.60;;;0.60;;
20699;SDS011;10511;51.232;9.420;2022-08-19T03:15:55;0.60;;;0.60;;
20699;SDS011;10511;51.232;9.420;2022-08-19T03:18:22;0.60;;;0.60;;
20699;SDS011;10511;51.232;9.420;2022-08-19T03:20:49;0.60;;;0.60;;
20699;SDS011;10511;51.232;9.420;2022-08-19T03:23:19;0.60;;;0.60;;
20699;SDS011;10511;51.232;9.420;2022-08-19T03:25:49;0.70;;;0.70;;
20699;SDS011;10511;51.232;9.420;2022-08-19T03:28:18;0.60;;;0.60;;
20699;SDS011;10511;51.232;9.420;2022-08-19T03:30:56;0.60;;;0.60;;
20699;SDS011;10511;51.232;9.420;2022-08-19T03:33:24;0.60;;;0.60;;
20699;SDS011;10511;51.232;9.420;2022-08-19T03:36:03;0.60;;;0.60;;
20699;SDS011;10511;51.232;9.420;2022-08-19T03:41:51;0.70;;;0.70;;
20699;SDS011;10511;51.232;9.420;2022-08-19T03:44:22;0.70;;;0.70;;
20699;SDS011;10511;51.232;9.420;2022-08-19T03:46:50;0.70;;;0.70;;
20699;SDS011;10511;51.232;9.420;2022-08-19T03:49:19;0.60;;;0.60;;
20699;SDS011;10511;51.232;9.420;2022-08-19T03:51:48;0.63;;;0.63;;
20699;SDS011;10511;51.232;9.420;2022-08-19T03:54:16;0.60;;;0.60;;
20699;SDS011;10511;51.232;9.420;2022-08-19T03:56:45;0.60;;;0.60;;
20699;SDS011;10511;51.232;9.420;2022-08-19T03:59:15;0.60;;;0.60;;
20699;SDS011;10511;51.232;9.420;2022-08-19T04:01:44;0.70;;;0.70;;
20699;SDS011;10511;51.232;9.420;2022-08-19T04:04:11;0.60;;;0.60;;
20699;SDS011;10511;51.232;9.420;2022-08-19T04:06:38;0.60;;;0.60;;
20699;SDS011;10511;51.232;9.420;2022-08-19T04:09:06;0.60;;;0.60;;
20699;SDS011;10511;51.232;9.420;2022-08-19T04:11:35;0.70;;;0.70;;
20699;SDS011;10511;51.232;9.420;2022-08-19T04:14:06;0.60;;;0.60;;
20699;SDS011;10511;51.232;9.420;2022-08-19T04:16:35;0.70;;;0.70;;
20699;SDS011;10511;51.232;9.420;2022-08-19T04:19:03;0.60;;;0.60;;
20699;SDS011;10511;51.232;9.420;2022-08-19T04:21:31;0.60;;;0.60;;
20699;SDS011;10511;51.232;9.420;2022-08-19T04:23:58;0.60;;;0.60;;
20699;SDS011;10511;51.232;9.420;2022-08-19T04:26:26;0.50;;;0.50;;
20699;SDS011;10511;51.232;9.420;2022-08-19T04:31:51;0.63;;;0.63;;
20699;SDS011;10511;51.232;9.420;2022-08-19T04:34:19;0.60;;;0.60;;
20699;SDS011;10511;51.232;9.420;2022-08-19T04:36:48;0.60;;;0.60;;
20699;SDS011;10511;51.232;9.420;2022-08-19T04:39:17;0.70;;;0.70;;
20699;SDS011;10511;51.232;9.420;2022-08-19T04:41:46;0.60;;;0.60;;
20699;SDS011;10511;51.232;9.420;2022-08-19T04:44:31;0.70;;;0.70;;
20699;SDS011;10511;51.232;9.420;2022-08-19T04:47:00;0.70;;;0.70;;
20699;SDS011;10511;51.232;9.420;2022-08-19T04:49:28;0.60;;;0.60;;
20699;SDS011;10511;51.232;9.420;2022-08-19T04:51:55;0.70;;;0.70;;
20699;SDS011;10511;51.232;9.420;2022-08-19T04:54:23;0.50;;;0.50;;
20699;SDS011;10511;51.232;9.420;2022-08-19T04:56:51;0.60;;;0.60;;
20699;SDS011;10511;51.232;9.420;2022-08-19T04:59:18;0.60;;;0.60;;
20699;SDS011;10511;51.232;9.420;2022-08-19T05:01:46;0.60;;;0.60;;
20699;SDS011;10511;51.232;9.420;2022-08-19T05:04:17;0.60;;;0.60;;
20699;SDS011;10511;51.232;9.420;2022-08-19T05:06:45;0.60;;;0.60;;
20699;SDS011;10511;51.232;9.420;2022-08-19T05:09:14;0.60;;;0.60;;
20699;SDS011;10511;51.232;9.420;2022-08-19T05:11:42;0.60;;;0.60;;
20699;SDS011;10511;51.232;9.420;2022-08-19T05:14:09;0.60;;;0.60;;
20699;SDS011;10511;51.232;9.420;2022-08-19T05:16:38;0.60;;;0.60;;
20699;SDS011;10511;51.232;9.420;2022-08-19T05:19:05;0.70;;;0.70;;
20699;SDS011;10511;51.232;9.420;2022-08-19T05:21:51;0.60;;;0.60;;
20699;SDS011;10511;51.232;9.420;2022-08-19T05:24:35;0.60;;;0.60;;
20699;SDS011;10511;51.232;9.420;2022-08-19T05:27:02;0.60;;;0.60;;
20699;SDS011;10511;51.232;9.420;2022-08-19T05:29:30;0.60;;;0.60;;
20699;SDS011;10511;51.232;9.420;2022-08-19T05:31:59;0.60;;;0.60;;
20699;SDS011;10511;51.232;9.420;2022-08-19T05:34:27;0.60;;;0.60;;
20699;SDS011;10511;51.232;9.420;2022-08-19T05:36:56;0.60;;;0.60;;
20699;SDS011;10511;51.232;9.420;2022-08-19T05:39:25;0.60;;;0.60;;
20699;SDS011;10511;51.232;9.420;2022-08-19T05:41:57;0.60;;;0.60;;
20699;SDS011;10511;51.232;9.420;2022-08-19T05:44:26;0.60;;;0.60;;
20699;SDS011;10511;51.232;9.420;2022-08-19T05:46:56;0.60;;;0.60;;
20699;SDS011;10511;51.232;9.420;2022-08-19T05:49:23;0.60;;;0.60;;
20699;SDS011;10511;51.232;9.420;2022-08-19T05:51:52;0.70;;;0.70;;
20699;SDS011;10511;51.232;9.420;2022-08-19T05:54:21;0.60;;;0.60;;
20699;SDS011;10511;51.232;9.420;2022-08-19T05:56:49;0.60;;;0.60;;
20699;SDS011;10511;51.232;9.420;2022-08-19T05:59:17;0.60;;;0.60;;
20699;SDS011;10511;51.232;9.420;2022-08-19T06:01:46;0.60;;;0.60;;
20699;SDS011;10511;51.232;9.420;2022-08-19T06:04:16;0.60;;;0.60;;
20699;SDS011;10511;51.232;9.420;2022-08-19T06:06:44;0.60;;;0.60;;
20699;SDS011;10511;51.232;9.420;2022-08-19T06:09:12;0.63;;;0.63;;
20699;SDS011;10511;51.232;9.420;2022-08-19T06:11:41;0.60;;;0.60;;
20699;SDS011;10511;51.232;9.420;2022-08-19T06:14:11;0.60;;;0.60;;
20699;SDS011;10511;51.232;9.420;2022-08-19T06:16:40;0.60;;;0.60;;
20699;SDS011;10511;51.232;9.420;2022-08-19T06:19:08;0.60;;;0.60;;
20699;SDS011;10511;51.232;9.420;2022-08-19T06:21:37;0.60;;;0.60;;
20699;SDS011;10511;51.232;9.420;2022-08-19T06:24:06;0.60;;;0.60;;
20699;SDS011;10511;51.232;9.420;2022-08-19T06:26:35;0.60;;;0.60;;
20699;SDS011;10511;51.232;9.420;2022-08-19T06:29:04;0.70;;;0.70;;
20699;SDS011;10511;51.232;9.420;2022-08-19T06:31:32;0.60;;;0.60;;
20699;SDS011;10511;51.232;9.420;2022-08-19T06:34:01;0.60;;;0.60;;
20699;SDS011;10511;51.232;9.420;2022-08-19T06:36:31;0.60;;;0.60;;
20699;SDS011;10511;51.232;9.420;2022-08-19T06:39:00;0.70;;;0.70;;
20699;SDS011;10511;51.232;9.420;2022-08-19T06:41:29;0.60;;;0.60;;
20699;SDS011;10511;51.232;9.420;2022-08-19T06:43:57;0.60;;;0.60;;
20699;SDS011;10511;51.232;9.420;2022-08-19T06:46:25;0.60;;;0.60;;
20699;SDS011;10511;51.232;9.420;2022-08-19T06:48:52;0.50;;;0.50;;
20699;SDS011;10511;51.232;9.420;2022-08-19T06:51:20;0.60;;;0.60;;
20699;SDS011;10511;51.232;9.420;2022-08-19T06:53:49;0.60;;;0.60;;
20699;SDS011;10511;51.232;9.420;2022-08-19T06:56:19;0.53;;;0.53;;
20699;SDS011;10511;51.232;9.420;2022-08-19T06:58:49;0.60;;;0.60;;
20699;SDS011;10511;51.232;9.420;2022-08-19T07:01:17;0.60;;;0.60;;
20699;SDS011;10511;51.232;9.420;2022-08-19T07:03:46;0.60;;;0.60;;
20699;SDS011;10511;51.232;9.420;2022-08-19T07:06:14;0.60;;;0.60;;
20699;SDS011;10511;51.232;9.420;2022-08-19T07:08:42;0.63;;;0.63;;
20699;SDS011;10511;51.232;9.420;2022-08-19T07:11:12;0.60;;;0.60;;
20699;SDS011;10511;51.232;9.420;2022-08-19T07:13:41;0.60;;;0.60;;
20699;SDS011;10511;51.232;9.420;2022-08-19T07:16:10;0.60;;;0.60;;
20699;SDS011;10511;51.232;9.420;2022-08-19T07:18:38;0.60;;;0.60;;
20699;SDS011;10511;51.232;9.420;2022-08-19T07:21:08;0.57;;;0.57;;
20699;SDS011;10511;51.232;9.420;2022-08-19T07:23:36;0.60;;;0.60;;
20699;SDS011;10511;51.232;9.420;2022-08-19T07:26:04;0.60;;;0.60;;
20699;SDS011;10511;51.232;9.420;2022-08-19T07:28:32;0.60;;;0.60;;
20699;SDS011;10511;51.232;9.420;2022-08-19T07:30:59;0.60;;;0.60;;
20699;SDS011;10511;51.232;9.420;2022-08-19T07:33:28;0.60;;;0.60;;
20699;SDS011;10511;51.232;9.420;2022-08-19T07:35:57;0.70;;;0.70;;
20699;SDS011;10511;51.232;9.420;2022-08-19T07:38:25;0.60;;;0.60;;
20699;SDS011;10511;51.232;9.420;2022-08-19T07:40:52;0.60;;;0.60;;
20699;SDS011;10511;51.232;9.420;2022-08-19T07:43:19;0.60;;;0.60;;
20699;SDS011;10511;51.232;9.420;2022-08-19T07:45:50;0.50;;;0.50;;
20699;SDS011;10511;51.232;9.420;2022-08-19T07:48:18;0.77;;;0.77;;
20699;SDS011;10511;51.232;9.420;2022-08-19T07:50:45;0.70;;;0.70;;
20699;SDS011;10511;51.232;9.420;2022-08-19T07:53:13;0.60;;;0.60;;
20699;SDS011;10511;51.232;9.420;2022-08-19T07:55:41;0.50;;;0.50;;
20699;SDS011;10511;51.232;9.420;2022-08-19T07:58:08;0.60;;;0.60;;
20699;SDS011;10511;51.232;9.420;2022-08-19T08:00:36;0.60;;;0.60;;
20699;SDS011;10511;51.232;9.420;2022-08-19T08:03:03;0.50;;;0.50;;
20699;SDS011;10511;51.232;9.420;2022-08-19T08:05:30;0.60;;;0.60;;
20699;SDS011;10511;51.232;9.420;2022-08-19T08:08:14;0.60;;;0.60;;
20699;SDS011;10511;51.232;9.420;2022-08-19T08:11:03;0.67;;;0.67;;
20699;SDS011;10511;51.232;9.420;2022-08-19T08:13:30;0.60;;;0.60;;
20699;SDS011;10511;51.232;9.420;2022-08-19T08:15:59;0.50;;;0.50;;
20699;SDS011;10511;51.232;9.420;2022-08-19T08:18:26;0.60;;;0.60;;
20699;SDS011;10511;51.232;9.420;2022-08-19T08:20:53;0.60;;;0.60;;
20699;SDS011;10511;51.232;9.420;2022-08-19T08:23:21;0.60;;;0.60;;
20699;SDS011;10511;51.232;9.420;2022-08-19T08:25:50;0.60;;;0.60;;
20699;SDS011;10511;51.232;9.420;2022-08-19T08:28:21;0.50;;;0.50;;
20699;SDS011;10511;51.232;9.420;2022-08-19T08:30:48;0.60;;;0.60;;
20699;SDS011;10511;51.232;9.420;2022-08-19T08:33:17;0.60;;;0.60;;
20699;SDS011;10511;51.232;9.420;2022-08-19T08:35:44;0.60;;;0.60;;
20699;SDS011;10511;51.232;9.420;2022-08-19T08:38:11;0.53;;;0.53;;
20699;SDS011;10511;51.232;9.420;2022-08-19T08:40:43;0.50;;;0.50;;
20699;SDS011;10511;51.232;9.420;2022-08-19T08:43:18;0.60;;;0.60;;
20699;SDS011;10511;51.232;9.420;2022-08-19T08:45:52;0.60;;;0.60;;
20699;SDS011;10511;51.232;9.420;2022-08-19T08:48:27;0.60;;;0.60;;
20699;SDS011;10511;51.232;9.420;2022-08-19T08:51:03;0.50;;;0.50;;
20699;SDS011;10511;51.232;9.420;2022-08-19T08:53:35;0.60;;;0.60;;
20699;SDS011;10511;51.232;9.420;2022-08-19T08:56:04;0.50;;;0.50;;
20699;SDS011;10511;51.232;9.420;2022-08-19T08:58:41;0.60;;;0.60;;
20699;SDS011;10511;51.232;9.420;2022-08-19T09:01:14;0.60;;;0.60;;
20699;SDS011;10511;51.232;9.420;2022-08-19T09:03:41;0.53;;;0.53;;
20699;SDS011;10511;51.232;9.420;2022-08-19T09:06:12;0.60;;;0.60;;
20699;SDS011;10511;51.232;9.420;2022-08-19T09:08:46;0.50;;;0.50;;
20699;SDS011;10511;51.232;9.420;2022-08-19T09:11:19;0.50;;;0.50;;
20699;SDS011;10511;51.232;9.420;2022-08-19T09:14:07;0.60;;;0.60;;
20699;SDS011;10511;51.232;9.420;2022-08-19T09:16:40;0.53;;;0.53;;
20699;SDS011;10511;51.232;9.420;2022-08-19T09:19:07;0.50;;;0.50;;
20699;SDS011;10511;51.232;9.420;2022-08-19T09:21:35;0.50;;;0.50;;
20699;SDS011;10511;51.232;9.420;2022-08-19T09:24:03;0.50;;;0.50;;
20699;SDS011;10511;51.232;9.420;2022-08-19T09:26:31;0.50;;;0.50;;
20699;SDS011;10511;51.232;9.420;2022-08-19T09:28:59;0.60;;;0.60;;
20699;SDS011;10511;51.232;9.420;2022-08-19T09:31:28;0.70;;;0.70;;
20699;SDS011;10511;51.232;9.420;2022-08-19T09:33:57;0.50;;;0.50;;
20699;SDS011;10511;51.232;9.420;2022-08-19T09:36:26;0.50;;;0.50;;
20699;SDS011;10511;51.232;9.420;2022-08-19T09:38:57;0.53;;;0.53;;
20699;SDS011;10511;51.232;9.420;2022-08-19T09:41:25;0.70;;;0.70;;
20699;SDS011;10511;51.232;9.420;2022-08-19T09:43:53;0.50;;;0.50;;
20699;SDS011;10511;51.232;9.420;2022-08-19T09:46:24;0.50;;;0.50;;
20699;SDS011;10511;51.232;9.420;2022-08-19T09:48:54;0.50;;;0.50;;
20699;SDS011;10511;51.232;9.420;2022-08-19T09:51:24;0.50;;;0.50;;
20699;SDS011;10511;51.232;9.420;2022-08-19T09:53:53;0.50;;;0.50;;
20699;SDS011;10511;51.232;9.420;2022-08-19T09:56:21;0.57;;;0.57;;
20699;SDS011;10511;51.232;9.420;2022-08-19T09:58:48;0.50;;;0.50;;
20699;SDS011;10511;51.232;9.420;2022-08-19T10:01:16;0.50;;;0.50;;
20699;SDS011;10511;51.232;9.420;2022-08-19T10:03:46;0.50;;;0.50;;
20699;SDS011;10511;51.232;9.420;2022-08-19T10:06:17;0.50;;;0.50;;
20699;SDS011;10511;51.232;9.420;2022-08-19T10:08:45;0.50;;;0.50;;
20699;SDS011;10511;51.232;9.420;2022-08-19T10:11:12;0.60;;;0.60;;
20699;SDS011;10511;51.232;9.420;2022-08-19T10:13:41;0.50;;;0.50;;
20699;SDS011;10511;51.232;9.420;2022-08-19T10:16:10;0.50;;;0.50;;
20699;SDS011;10511;51.232;9.420;2022-08-19T10:18:38;0.60;;;0.60;;
20699;SDS011;10511;51.232;9.420;2022-08-19T10:21:07;0.50;;;0.50;;
20699;SDS011;10511;51.232;9.420;2022-08-19T10:23:37;0.60;;;0.60;;
20699;SDS011;10511;51.232;9.420;2022-08-19T10:26:09;0.50;;;0.50;;
20699;SDS011;10511;51.232;9.420;2022-08-19T10:28:37;0.50;;;0.50;;
20699;SDS011;10511;51.232;9.420;2022-08-19T10:31:05;0.50;;;0.50;;
20699;SDS011;10511;51.232;9.420;2022-08-19T10:33:33;0.50;;;0.50;;
20699;SDS011;10511;51.232;9.420;2022-08-19T10:36:00;0.50;;;0.50;;
20699;SDS011;10511;51.232;9.420;2022-08-19T10:38:28;0.50;;;0.50;;
20699;SDS011;10511;51.232;9.420;2022-08-19T10:40:58;0.53;;;0.53;;
20699;SDS011;10511;51.232;9.420;2022-08-19T10:43:32;0.70;;;0.70;;
20699;SDS011;10511;51.232;9.420;2022-08-19T10:46:03;0.53;;;0.53;;
20699;SDS011;10511;51.232;9.420;2022-08-19T10:48:30;0.60;;;0.60;;
20699;SDS011;10511;51.232;9.420;2022-08-19T10:50:58;0.50;;;0.50;;
20699;SDS011;10511;51.232;9.420;2022-08-19T10:53:42;0.60;;;0.60;;
20699;SDS011;10511;51.232;9.420;2022-08-19T10:56:10;0.50;;;0.50;;
20699;SDS011;10511;51.232;9.420;2022-08-19T10:58:55;0.60;;;0.60;;
20699;SDS011;10511;51.232;9.420;2022-08-19T11:01:23;0.50;;;0.50;;
20699;SDS011;10511;51.232;9.420;2022-08-19T11:03:50;0.50;;;0.50;;
20699;SDS011;10511;51.232;9.420;2022-08-19T11:06:17;0.50;;;0.50;;
20699;SDS011;10511;51.232;9.420;2022-08-19T11:08:45;0.50;;;0.50;;
20699;SDS011;10511;51.232;9.420;2022-08-19T11:11:13;0.50;;;0.50;;
20699;SDS011;10511;51.232;9.420;2022-08-19T11:13:40;0.40;;;0.40;;
20699;SDS011;10511;51.232;9.420;2022-08-19T11:16:10;0.43;;;0.43;;
20699;SDS011;10511;51.232;9.420;2022-08-19T11:18:40;0.50;;;0.50;;
20699;SDS011;10511;51.232;9.420;2022-08-19T11:21:11;0.50;;;0.50;;
20699;SDS011;10511;51.232;9.420;2022-08-19T11:23:39;0.40;;;0.40;;
20699;SDS011;10511;51.232;9.420;2022-08-19T11:26:07;0.40;;;0.40;;
20699;SDS011;10511;51.232;9.420;2022-08-19T11:28:35;0.50;;;0.50;;
20699;SDS011;10511;51.232;9.420;2022-08-19T11:31:03;0.43;;;0.43;;
20699;SDS011;10511;51.232;9.420;2022-08-19T11:33:30;0.50;;;0.50;;
20699;SDS011;10511;51.232;9.420;2022-08-19T11:35:58;0.50;;;0.50;;
20699;SDS011;10511;51.232;9.420;2022-08-19T11:38:25;0.50;;;0.50;;
20699;SDS011;10511;51.232;9.420;2022-08-19T11:40:56;0.50;;;0.50;;
20699;SDS011;10511;51.232;9.420;2022-08-19T11:43:24;0.40;;;0.40;;
20699;SDS011;10511;51.232;9.420;2022-08-19T11:45:53;0.40;;;0.40;;
20699;SDS011;10511;51.232;9.420;2022-08-19T11:48:20;0.40;;;0.40;;
20699;SDS011;10511;51.232;9.420;2022-08-19T11:50:48;0.50;;;0.50;;
20699;SDS011;10511;51.232;9.420;2022-08-19T11:53:15;0.40;;;0.40;;
20699;SDS011;10511;51.232;9.420;2022-08-19T11:55:43;0.40;;;0.40;;
20699;SDS011;10511;51.232;9.420;2022-08-19T11:58:10;0.40;;;0.40;;
20699;SDS011;10511;51.232;9.420;2022-08-19T12:00:38;0.40;;;0.40;;
20699;SDS011;10511;51.232;9.420;2022-08-19T12:03:07;0.40;;;0.40;;
20699;SDS011;10511;51.232;9.420;2022-08-19T12:05:36;0.40;;;0.40;;
20699;SDS011;10511;51.232;9.420;2022-08-19T12:08:03;0.40;;;0.40;;
20699;SDS011;10511;51.232;9.420;2022-08-19T12:10:30;0.40;;;0.40;;
20699;SDS011;10511;51.232;9.420;2022-08-19T12:12:58;0.40;;;0.40;;
20699;SDS011;10511;51.232;9.420;2022-08-19T12:15:25;0.40;;;0.40;;
20699;SDS011;10511;51.232;9.420;2022-08-19T12:17:54;0.40;;;0.40;;
20699;SDS011;10511;51.232;9.420;2022-08-19T12:20:23;0.40;;;0.40;;
20699;SDS011;10511;51.232;9.420;2022-08-19T12:22:50;0.50;;;0.50;;
20699;SDS011;10511;51.232;9.420;2022-08-19T12:25:18;0.40;;;0.40;;
20699;SDS011;10511;51.232;9.420;2022-08-19T12:27:45;0.40;;;0.40;;
20699;SDS011;10511;51.232;9.420;2022-08-19T12:30:13;0.40;;;0.40;;
20699;SDS011;10511;51.232;9.420;2022-08-19T12:32:40;0.40;;;0.40;;
20699;SDS011;10511;51.232;9.420;2022-08-19T12:35:07;0.40;;;0.40;;
20699;SDS011;10511;51.232;9.420;2022-08-19T12:37:38;0.40;;;0.40;;
20699;SDS011;10511;51.232;9.420;2022-08-19T12:40:07;0.43;;;0.43;;
20699;SDS011;10511;51.232;9.420;2022-08-19T12:42:36;0.40;;;0.40;;
20699;SDS011;10511;51.232;9.420;2022-08-19T12:45:07;0.40;;;0.40;;
20699;SDS011;10511;51.232;9.420;2022-08-19T12:47:35;0.40;;;0.40;;
20699;SDS011;10511;51.232;9.420;2022-08-19T12:50:02;0.40;;;0.40;;
20699;SDS011;10511;51.232;9.420;2022-08-19T12:52:33;0.40;;;0.40;;
20699;SDS011;10511;51.232;9.420;2022-08-19T12:55:04;0.40;;;0.40;;
20699;SDS011;10511;51.232;9.420;2022-08-19T12:57:33;0.40;;;0.40;;
20699;SDS011;10511;51.232;9.420;2022-08-19T13:00:03;0.40;;;0.40;;
20699;SDS011;10511;51.232;9.420;2022-08-19T13:02:35;0.40;;;0.40;;
20699;SDS011;10511;51.232;9.420;2022-08-19T13:05:03;0.40;;;0.40;;
20699;SDS011;10511;51.232;9.420;2022-08-19T13:07:31;0.33;;;0.33;;
20699;SDS011;10511;51.232;9.420;2022-08-19T13:09:58;0.40;;;0.40;;
20699;SDS011;10511;51.232;9.420;2022-08-19T13:12:27;0.40;;;0.40;;
20699;SDS011;10511;51.232;9.420;2022-08-19T13:14:54;0.47;;;0.47;;
20699;SDS011;10511;51.232;9.420;2022-08-19T13:17:21;0.40;;;0.40;;
20699;SDS011;10511;51.232;9.420;2022-08-19T13:19:48;0.40;;;0.40;;
20699;SDS011;10511;51.232;9.420;2022-08-19T13:22:16;0.40;;;0.40;;
20699;SDS011;10511;51.232;9.420;2022-08-19T13:24:43;0.40;;;0.40;;
20699;SDS011;10511;51.232;9.420;2022-08-19T13:27:10;0.40;;;0.40;;
20699;SDS011;10511;51.232;9.420;2022-08-19T13:29:40;0.40;;;0.40;;
20699;SDS011;10511;51.232;9.420;2022-08-19T13:32:28;0.40;;;0.40;;
20699;SDS011;10511;51.232;9.420;2022-08-19T13:35:12;0.50;;;0.50;;
20699;SDS011;10511;51.232;9.420;2022-08-19T13:37:40;0.40;;;0.40;;
20699;SDS011;10511;51.232;9.420;2022-08-19T13:40:11;0.40;;;0.40;;
20699;SDS011;10511;51.232;9.420;2022-08-19T13:42:43;0.40;;;0.40;;
20699;SDS011;10511;51.232;9.420;2022-08-19T13:45:13;0.43;;;0.43;;
20699;SDS011;10511;51.232;9.420;2022-08-19T13:47:44;0.40;;;0.40;;
20699;SDS011;10511;51.232;9.420;2022-08-19T13:50:12;0.50;;;0.50;;
20699;SDS011;10511;51.232;9.420;2022-08-19T13:52:40;0.47;;;0.47;;
20699;SDS011;10511;51.232;9.420;2022-08-19T13:55:08;0.40;;;0.40;;
20699;SDS011;10511;51.232;9.420;2022-08-19T13:57:36;0.40;;;0.40;;
20699;SDS011;10511;51.232;9.420;2022-08-19T14:00:06;0.40;;;0.40;;
20699;SDS011;10511;51.232;9.420;2022-08-19T14:02:36;0.43;;;0.43;;
20699;SDS011;10511;51.232;9.420;2022-08-19T14:05:04;0.50;;;0.50;;
20699;SDS011;10511;51.232;9.420;2022-08-19T14:07:32;0.40;;;0.40;;
20699;SDS011;10511;51.232;9.420;2022-08-19T14:09:59;0.43;;;0.43;;
20699;SDS011;10511;51.232;9.420;2022-08-19T14:12:26;0.47;;;0.47;;
20699;SDS011;10511;51.232;9.420;2022-08-19T14:14:53;0.40;;;0.40;;
20699;SDS011;10511;51.232;9.420;2022-08-19T14:17:20;0.40;;;0.40;;
20699;SDS011;10511;51.232;9.420;2022-08-19T14:19:48;0.47;;;0.47;;
20699;SDS011;10511;51.232;9.420;2022-08-19T14:22:15;0.43;;;0.43;;
20699;SDS011;10511;51.232;9.420;2022-08-19T14:24:43;0.40;;;0.40;;
20699;SDS011;10511;51.232;9.420;2022-08-19T14:27:12;0.40;;;0.40;;
20699;SDS011;10511;51.232;9.420;2022-08-19T14:29:39;0.40;;;0.40;;
20699;SDS011;10511;51.232;9.420;2022-08-19T14:32:06;0.40;;;0.40;;
20699;SDS011;10511;51.232;9.420;2022-08-19T14:34:33;0.40;;;0.40;;
20699;SDS011;10511;51.232;9.420;2022-08-19T14:37:03;0.40;;;0.40;;
20699;SDS011;10511;51.232;9.420;2022-08-19T14:39:31;0.40;;;0.40;;
20699;SDS011;10511;51.232;9.420;2022-08-19T14:41:58;0.40;;;0.40;;
20699;SDS011;10511;51.232;9.420;2022-08-19T14:44:24;0.40;;;0.40;;
20699;SDS011;10511;51.232;9.420;2022-08-19T14:46:51;0.40;;;0.40;;
20699;SDS011;10511;51.232;9.420;2022-08-19T14:49:18;0.50;;;0.50;;
20699;SDS011;10511;51.232;9.420;2022-08-19T14:51:45;0.50;;;0.50;;
20699;SDS011;10511;51.232;9.420;2022-08-19T14:54:14;0.40;;;0.40;;
20699;SDS011;10511;51.232;9.420;2022-08-19T14:56:40;0.40;;;0.40;;
20699;SDS011;10511;51.232;9.420;2022-08-19T14:59:08;0.40;;;0.40;;
20699;SDS011;10511;51.232;9.420;2022-08-19T15:01:35;0.40;;;0.40;;
20699;SDS011;10511;51.232;9.420;2022-08-19T15:04:02;0.40;;;0.40;;